Time;durP1;ratioP1;P1;durP2;ratioP2;P2;SDS_P1;SDS_P2;PMS_P1;PMS_P2;Temp;Humidity;BMP_temperature;BMP_pressure;BME280_temperature;BME280_humidity;BME280_pressure;Samples;Min_cycle;Max_cycle;Signal;HPM_P1;HPM_P2
2022/04/05 00:03:30;;;;;;;0.57;0.40;;;17.30;29.80;19.80;93588.00;;;;10396790;28;45455;-64
2022/04/05 00:08:31;;;;;;;0.50;0.30;;;17.20;29.80;19.80;93576.00;;;;10377929;28;47088;-64
2022/04/05 00:13:31;;;;;;;0.38;0.30;;;17.20;29.80;19.80;93568.00;;;;10377508;28;47340;-64
2022/04/05 00:18:32;;;;;;;0.75;0.40;;;17.20;29.80;19.80;93577.00;;;;10378415;28;45315;-64
2022/04/05 00:23:33;;;;;;;0.88;0.50;;;17.20;29.70;19.80;93582.00;;;;10407910;22;48527;-62
2022/04/05 00:28:34;;;;;;;0.75;0.47;;;17.20;30.00;19.80;93583.00;;;;10338051;28;47216;-63
2022/04/05 00:33:34;;;;;;;0.60;0.40;;;17.20;29.70;19.80;93576.00;;;;10326506;28;45144;-63
2022/04/05 00:38:35;;;;;;;1.05;0.30;;;17.20;29.70;19.80;93572.00;;;;10314714;28;45333;-62
2022/04/05 00:43:36;;;;;;;0.85;0.40;;;17.20;29.70;19.80;93570.00;;;;10297128;28;45460;-63
2022/04/05 00:48:55;;;;;;;0.40;0.28;;;17.20;29.80;19.70;93570.00;;;;10296692;28;45671;-63
2022/04/05 00:54:02;;;;;;;0.60;0.30;;;17.20;29.70;19.70;93578.00;;;;10280673;28;47148;-63
2022/04/05 00:59:06;;;;;;;0.75;0.40;;;17.20;29.70;19.70;93570.00;;;;10277988;28;46848;-64
2022/04/05 01:04:09;;;;;;;0.55;0.47;;;17.20;29.70;19.70;93560.00;;;;10292140;28;45587;-63
2022/04/05 01:09:10;;;;;;;0.40;0.25;;;17.20;29.70;19.70;93563.00;;;;10295948;28;46469;-62
2022/04/05 01:14:10;;;;;;;0.30;0.30;;;17.20;29.70;19.70;93555.00;;;;10279845;28;46989;-62
2022/04/05 01:19:11;;;;;;;0.30;0.30;;;17.20;29.70;19.70;93540.00;;;;10295890;28;45540;-62
2022/04/05 01:24:14;;;;;;;0.63;0.30;;;17.20;29.70;19.70;93536.00;;;;10312973;28;45401;-62
2022/04/05 01:29:19;;;;;;;0.43;0.43;;;17.20;29.70;19.70;93544.00;;;;10295433;28;47391;-62
2022/04/05 01:34:23;;;;;;;1.23;0.57;;;17.20;29.60;19.70;93532.00;;;;10279277;28;46886;-62
2022/04/05 01:39:30;;;;;;;0.82;0.63;;;17.20;29.60;19.70;93538.00;;;;10295504;28;47270;-62
2022/04/05 01:44:33;;;;;;;;;;;17.10;29.60;19.70;93536.00;;;;10313438;28;45187;-63
2022/04/05 01:49:33;;;;;;;0.60;0.40;;;17.20;29.70;19.70;93534.00;;;;10295199;28;45169;-63
2022/04/05 01:54:35;;;;;;;0.63;0.40;;;17.20;29.70;19.70;93528.00;;;;10295165;28;45216;-63
2022/04/05 01:59:38;;;;;;;2.42;0.38;;;17.20;29.60;19.70;93526.00;;;;10295042;28;45333;-63
2022/04/05 02:04:40;;;;;;;0.40;0.32;;;17.20;29.60;19.70;93520.00;;;;10295052;28;45355;-62
2022/04/05 02:09:41;;;;;;;0.45;0.35;;;17.20;29.60;19.70;93510.00;;;;10294718;28;46574;-62
2022/04/05 02:14:42;;;;;;;0.60;0.45;;;17.20;29.60;19.70;93520.00;;;;10312283;28;45523;-63
2022/04/05 02:19:44;;;;;;;1.08;0.30;;;17.20;29.60;19.70;93516.00;;;;10294685;28;45393;-62
2022/04/05 02:24:44;;;;;;;0.40;0.30;;;17.10;29.60;19.70;93511.00;;;;10293712;28;47055;-62
2022/04/05 02:29:45;;;;;;;1.58;0.43;;;17.10;29.50;19.70;93517.00;;;;10294177;28;45667;-63
2022/04/05 02:34:46;;;;;;;0.43;0.43;;;17.10;29.60;19.60;93519.00;;;;10295675;28;45603;-63
2022/04/05 02:39:46;;;;;;;0.40;0.28;;;17.10;29.60;19.60;93503.00;;;;10284427;28;47747;-63
2022/04/05 02:44:47;;;;;;;0.52;0.30;;;17.10;29.50;19.70;93517.00;;;;10300981;28;46480;-63
2022/04/05 02:49:49;;;;;;;0.57;0.38;;;17.10;29.50;19.60;93497.00;;;;10300427;28;45428;-62
2022/04/05 02:54:49;;;;;;;0.65;0.35;;;17.10;29.50;19.60;93512.00;;;;10300187;28;46435;-62
2022/04/05 02:59:50;;;;;;;0.45;0.35;;;17.10;29.50;19.60;93505.00;;;;10283520;28;46966;-62
2022/04/05 03:04:51;;;;;;;0.68;0.38;;;17.10;29.50;19.60;93504.00;;;;10300278;28;45395;-63
2022/04/05 03:09:51;;;;;;;0.70;0.30;;;17.10;29.50;19.60;93516.00;;;;10283368;28;46756;-63
2022/04/05 03:14:52;;;;;;;0.40;0.30;;;17.10;29.50;19.60;93524.00;;;;10317267;28;46735;-62
2022/04/05 03:19:53;;;;;;;0.95;0.45;;;17.10;29.40;19.60;93516.00;;;;10316943;28;45424;-62
2022/04/05 03:24:53;;;;;;;0.40;0.20;;;17.10;29.40;19.60;93518.00;;;;10282692;28;46976;-63
2022/04/05 03:29:54;;;;;;;0.38;0.30;;;17.10;29.40;19.60;93532.00;;;;10316472;28;46644;-63
2022/04/05 03:34:54;;;;;;;0.20;0.20;;;17.10;29.40;19.60;93524.00;;;;10316600;28;45308;-63
2022/04/05 03:39:55;;;;;;;0.63;0.40;;;17.10;29.40;19.60;93528.00;;;;10316405;28;45259;-62
2022/04/05 03:44:56;;;;;;;0.40;0.38;;;17.10;29.40;19.60;93521.00;;;;10298733;28;45542;-62
2022/04/05 03:49:57;;;;;;;0.45;0.30;;;17.10;29.40;19.60;93528.00;;;;10298439;28;46425;-62
2022/04/05 03:54:58;;;;;;;0.57;0.30;;;17.10;29.40;19.60;93540.00;;;;10281941;28;46829;-63
2022/04/05 03:59:58;;;;;;;0.82;0.40;;;17.10;29.40;19.60;93520.00;;;;10315618;28;45539;-63
2022/04/05 04:04:59;;;;;;;0.47;0.30;;;17.10;29.30;19.60;93520.00;;;;10315502;28;45203;-62
2022/04/05 04:10:02;;;;;;;0.75;0.30;;;17.20;29.40;19.70;93529.00;;;;10297546;28;46984;-63
2022/04/05 04:15:04;;;;;;;1.27;0.40;;;17.20;29.30;19.80;93518.00;;;;10315182;28;45187;-63
2022/04/05 04:20:06;;;;;;;0.28;0.22;;;17.20;29.30;19.80;93522.00;;;;10297433;28;46676;-63
2022/04/05 04:25:08;;;;;;;0.60;0.38;;;17.30;29.20;19.80;93511.00;;;;10297175;28;45480;-62
2022/04/05 04:30:10;;;;;;;0.52;0.35;;;17.30;29.20;19.90;93526.00;;;;10297059;28;45583;-63
2022/04/05 04:35:11;;;;;;;0.80;0.40;;;17.40;29.10;19.90;93503.00;;;;10297143;28;45829;-62
2022/04/05 04:40:12;;;;;;;0.38;0.30;;;17.40;29.10;19.90;93501.00;;;;10296660;28;45598;-63
2022/04/05 04:45:13;;;;;;;0.30;0.30;;;17.40;29.10;19.90;93513.00;;;;10296084;28;45856;-62
2022/04/05 04:50:14;;;;;;;0.57;0.35;;;17.40;29.10;19.90;93507.00;;;;10296134;28;48248;-63
2022/04/05 04:55:14;;;;;;;0.77;0.40;;;17.40;29.20;19.90;93519.00;;;;10296111;28;47850;-63
2022/04/05 05:00:17;;;;;;;0.30;0.28;;;17.30;29.10;19.90;93527.00;;;;10295616;28;45658;-63
2022/04/05 05:05:22;;;;;;;0.38;0.32;;;17.30;29.10;19.90;93504.00;;;;10280054;28;47290;-63
2022/04/05 05:10:23;;;;;;;0.70;0.30;;;17.30;29.20;19.80;93510.00;;;;10278822;28;46846;-63
2022/04/05 05:15:24;;;;;;;0.77;0.30;;;17.30;29.20;19.80;93526.00;;;;10295273;28;45149;-63
2022/04/05 05:20:25;;;;;;;0.70;0.50;;;17.30;29.20;19.80;93532.00;;;;10313955;28;45224;-63
2022/04/05 05:25:26;;;;;;;0.52;0.40;;;17.20;29.20;19.80;93535.00;;;;10312456;28;45208;-63
2022/04/05 05:30:26;;;;;;;0.65;0.30;;;17.30;29.20;19.80;93542.00;;;;10313573;28;45462;-62
2022/04/05 05:35:27;;;;;;;0.75;0.30;;;17.30;29.10;19.80;93538.00;;;;10295401;28;45402;-62
2022/04/05 05:40:28;;;;;;;0.57;0.30;;;17.30;29.20;19.90;93546.00;;;;10313193;28;45203;-62
2022/04/05 05:45:38;;;;;;;0.63;0.35;;;17.30;29.10;19.90;93541.00;;;;10278667;28;46774;-63
2022/04/05 05:50:39;;;;;;;0.40;0.40;;;17.30;29.10;19.90;93533.00;;;;10279432;28;47675;-62
2022/04/05 05:55:40;;;;;;;0.75;0.50;;;17.40;29.20;19.90;93537.00;;;;10312417;28;45660;-62
2022/04/05 06:00:40;;;;;;;0.45;0.40;;;17.40;29.10;19.90;93543.00;;;;10294882;28;46464;-63
2022/04/05 06:05:43;;;;;;;0.80;0.35;;;17.40;29.10;19.90;93542.00;;;;10294282;28;45298;-63
2022/04/05 06:10:45;;;;;;;0.68;0.50;;;17.40;29.10;19.90;93542.00;;;;10296867;28;46370;-62
2022/04/05 06:15:46;;;;;;;1.48;0.50;;;17.40;29.10;19.90;93536.00;;;;10301301;28;45686;-62
2022/04/05 06:20:47;;;;;;;0.43;0.25;;;17.40;29.20;19.90;93555.00;;;;10301290;28;47270;-63
2022/04/05 06:25:47;;;;;;;0.75;0.40;;;17.40;29.10;19.90;93541.00;;;;10358186;22;45597;-66
2022/04/05 06:30:48;;;;;;;0.65;0.30;;;17.40;29.10;19.90;93530.00;;;;10357277;28;46692;-65
2022/04/05 06:35:56;;;;;;;0.30;0.30;;;17.30;29.10;19.90;93531.00;;;;10351488;28;47082;-65
2022/04/05 06:40:59;;;;;;;0.85;0.50;;;17.40;29.20;19.90;93535.00;;;;10373798;28;46330;-66
2022/04/05 06:45:59;;;;;;;1.15;0.50;;;17.40;29.20;19.90;93546.00;;;;10357771;28;46942;-66
2022/04/05 06:51:00;;;;;;;0.70;0.40;;;17.40;29.20;19.90;93526.00;;;;10356931;28;47349;-66
2022/04/05 06:56:01;;;;;;;0.63;0.30;;;17.30;29.20;19.90;93551.00;;;;10362137;28;45494;-65
2022/04/05 07:01:01;;;;;;;0.60;0.43;;;17.30;29.10;19.90;93537.00;;;;10329294;28;47168;-66
2022/04/05 07:06:03;;;;;;;0.50;0.40;;;17.30;29.10;19.90;93535.00;;;;10355728;28;46063;-65
2022/04/05 07:11:04;;;;;;;0.73;0.38;;;17.40;29.20;19.90;93540.00;;;;10332238;28;45209;-66
2022/04/05 07:16:04;;;;;;;0.70;0.40;;;17.30;29.10;19.90;93533.00;;;;10315373;28;46245;-64
2022/04/05 07:21:06;;;;;;;0.80;0.45;;;17.40;29.30;19.90;93514.00;;;;10314897;28;47301;-65
2022/04/05 07:26:07;;;;;;;0.50;0.30;;;17.50;29.70;20.00;93529.00;;;;10314283;28;47174;-65
2022/04/05 07:31:08;;;;;;;0.40;0.40;;;17.50;29.30;19.90;93520.00;;;;10331165;28;46491;-66
2022/04/05 07:36:08;;;;;;;1.25;0.43;;;17.50;29.30;19.90;93513.00;;;;10330928;28;45465;-66
2022/04/05 07:41:09;;;;;;;0.70;0.40;;;17.50;29.30;19.90;93524.00;;;;10314761;28;48407;-66
2022/04/05 07:46:10;;;;;;;0.65;0.47;;;17.50;29.40;19.90;93523.00;;;;10330496;28;45329;-65
2022/04/05 07:51:10;;;;;;;0.85;0.43;;;17.40;29.30;19.90;93526.00;;;;10314207;28;47096;-66
2022/04/05 07:56:13;;;;;;;0.63;0.30;;;17.40;29.30;19.90;93512.00;;;;10313611;28;47572;-66
2022/04/05 08:01:14;;;;;;;1.98;0.52;;;17.40;29.30;20.00;93510.00;;;;10315382;28;45364;-66
2022/04/05 08:06:14;;;;;;;1.25;0.50;;;17.40;29.40;20.00;93520.00;;;;10313484;28;47922;-64
2022/04/05 08:11:15;;;;;;;0.40;0.30;;;17.40;29.50;20.00;93531.00;;;;10330397;28;45387;-65
2022/04/05 08:16:16;;;;;;;0.73;0.50;;;17.50;29.50;20.00;93522.00;;;;10314541;28;45279;-65
2022/04/05 08:21:20;;;;;;;1.23;0.40;;;17.50;29.40;19.90;93526.00;;;;10313581;28;47014;-65
2022/04/05 08:26:21;;;;;;;1.17;0.50;;;17.40;29.40;20.00;93537.00;;;;10312458;28;46941;-65
2022/04/05 08:31:23;;;;;;;0.80;0.40;;;17.40;29.40;20.00;93539.00;;;;10328933;28;45315;-66
2022/04/05 08:36:24;;;;;;;0.88;0.50;;;17.40;29.40;20.00;93549.00;;;;10327443;28;45245;-65
2022/04/05 08:41:27;;;;;;;0.98;0.40;;;17.50;29.40;20.00;93543.00;;;;10313241;28;45381;-65
2022/04/05 08:46:33;;;;;;;0.50;0.30;;;17.50;29.40;20.00;93548.00;;;;10328776;28;45507;-64
2022/04/05 08:51:34;;;;;;;0.70;0.35;;;17.50;29.40;20.00;93548.00;;;;10329299;28;46490;-65
2022/04/05 08:56:35;;;;;;;1.77;0.32;;;17.50;29.50;19.90;93543.00;;;;10312800;28;46951;-65
2022/04/05 09:01:36;;;;;;;1.15;0.40;;;17.50;29.50;20.00;93541.00;;;;10321462;28;45171;-65
2022/04/05 09:06:37;;;;;;;0.60;0.25;;;17.50;29.40;20.00;93547.00;;;;10258153;28;47559;-65
2022/04/05 09:11:59;;;;;;;0.65;0.45;;;17.50;29.40;20.00;93547.00;;;;10280749;28;46304;-65
2022/04/05 09:17:12;;;;;;;1.85;0.30;;;17.50;29.40;20.00;93550.00;;;;10295786;28;47936;-65
2022/04/05 09:22:13;;;;;;;0.63;0.30;;;17.50;29.40;20.00;93541.00;;;;10296225;28;47127;-65
2022/04/05 09:27:13;;;;;;;2.42;0.60;;;17.50;29.40;20.00;93535.00;;;;10278712;28;48271;-65
2022/04/05 09:32:40;;;;;;;2.90;0.40;;;17.50;29.30;20.10;93543.00;;;;10296052;28;45610;-67
2022/04/05 09:37:40;;;;;;;1.17;0.40;;;17.50;29.60;20.10;93533.00;;;;10326001;28;45370;-64
2022/04/05 09:43:15;;;;;;;1.00;0.40;;;17.50;29.30;20.10;93532.00;;;;10312200;28;45466;-64
2022/04/05 09:48:29;;;;;;;1.33;0.30;;;17.60;29.60;20.20;93533.00;;;;10307263;28;45261;-67
2022/04/05 09:53:39;;;;;;;1.00;0.30;;;17.60;29.70;20.20;93524.00;;;;10334108;28;45587;-66
2022/04/05 09:59:19;;;;;;;1.15;0.30;;;17.60;29.60;20.30;93516.00;;;;10316617;28;46921;-67
2022/04/05 10:04:20;;;;;;;1.05;0.30;;;17.70;29.70;20.30;93521.00;;;;10317279;28;45739;-63
2022/04/05 10:09:22;;;;;;;0.68;0.40;;;17.70;29.20;20.30;93523.00;;;;10333159;28;45561;-67
2022/04/05 10:14:25;;;;;;;1.25;0.50;;;17.70;29.20;20.40;93513.00;;;;10316325;28;47360;-66
2022/04/05 10:19:26;;;;;;;1.17;0.40;;;17.80;29.40;20.30;93502.00;;;;10332672;28;45384;-66
2022/04/05 10:24:28;;;;;;;0.73;0.35;;;17.80;29.30;20.30;93514.00;;;;10316754;28;47640;-67
2022/04/05 10:29:30;;;;;;;0.73;0.30;;;17.80;29.40;20.30;93504.00;;;;10316176;28;47294;-66
2022/04/05 10:35:02;;;;;;;0.85;0.40;;;17.80;29.40;20.40;93490.00;;;;10332728;28;45350;-66
2022/04/05 10:40:03;;;;;;;0.60;0.30;;;17.80;29.40;20.40;93498.00;;;;10332474;28;45440;-69
2022/04/05 10:45:18;;;;;;;0.32;0.20;;;17.80;29.40;20.40;93477.00;;;;10317160;28;45384;-66
2022/04/05 10:50:19;;;;;;;0.60;0.30;;;17.80;29.40;20.40;93490.00;;;;10315323;28;46991;-66
2022/04/05 10:55:20;;;;;;;0.63;0.30;;;17.80;29.40;20.40;93481.00;;;;10331379;28;45558;-69
2022/04/05 11:00:26;;;;;;;0.57;0.20;;;17.90;30.00;20.40;93479.00;;;;10331832;28;46532;-67
2022/04/05 11:05:37;;;;;;;0.30;0.25;;;17.80;29.50;20.40;93466.00;;;;10330828;28;45453;-67
2022/04/05 11:10:39;;;;;;;1.08;0.30;;;17.90;29.60;20.40;93467.00;;;;10339769;28;45662;-68
2022/04/05 11:15:51;;;;;;;2.05;0.60;;;17.90;29.60;20.40;93476.00;;;;10316337;28;45892;-68
2022/04/05 11:20:56;;;;;;;1.35;0.43;;;17.80;29.60;20.40;93459.00;;;;10349701;28;45173;-67
2022/04/05 11:26:35;;;;;;;1.30;0.30;;;17.80;29.60;20.40;93470.00;;;;10356237;28;45381;-67
2022/04/05 11:31:40;;;;;;;0.40;0.28;;;17.80;29.60;20.40;93483.00;;;;10355548;28;48047;-67
2022/04/05 11:36:42;;;;;;;0.30;0.30;;;17.80;29.50;20.40;93477.00;;;;10345044;28;45600;-67
2022/04/05 11:41:43;;;;;;;0.55;0.20;;;17.80;29.60;20.40;93472.00;;;;10330923;28;45244;-69
2022/04/05 11:46:46;;;;;;;0.57;0.30;;;17.90;29.50;20.50;93459.00;;;;10329797;28;45690;-67
2022/04/05 11:51:48;;;;;;;0.75;0.40;;;17.90;29.50;20.50;93466.00;;;;10330601;28;45546;-68
2022/04/05 11:56:50;;;;;;;0.57;0.20;;;17.90;29.50;20.50;93470.00;;;;10330092;28;45324;-67
2022/04/05 12:01:51;;;;;;;0.80;0.50;;;17.90;29.50;20.50;93469.00;;;;10315194;28;46540;-67
2022/04/05 12:06:58;;;;;;;0.30;0.20;;;17.90;29.50;20.50;93469.00;;;;10311554;28;47209;-69
2022/04/05 12:12:04;;;;;;;0.52;0.20;;;17.90;29.50;20.50;93466.00;;;;10331295;28;45258;-67
2022/04/05 12:17:05;;;;;;;0.30;0.27;;;17.90;29.40;20.60;93464.00;;;;10315684;28;45432;-67
2022/04/05 12:22:10;;;;;;;0.30;0.28;;;18.00;29.40;20.60;93480.00;;;;10331212;28;45320;-68
2022/04/05 12:27:11;;;;;;;0.28;0.20;;;18.10;29.30;20.60;93448.00;;;;10330347;28;46276;-68
2022/04/05 12:32:13;;;;;;;0.68;0.30;;;18.10;29.40;20.70;93456.00;;;;10321865;28;46868;-67
2022/04/05 12:37:16;;;;;;;1.42;0.47;;;18.10;29.40;20.70;93455.00;;;;10320424;28;46895;-67
2022/04/05 12:42:19;;;;;;;0.52;0.30;;;18.10;29.40;20.70;93453.00;;;;10351141;28;45658;-67
2022/04/05 12:47:25;;;;;;;0.35;0.30;;;18.10;29.40;20.70;93452.00;;;;10354064;28;47624;-67
2022/04/05 12:52:29;;;;;;;0.43;0.25;;;18.10;29.50;20.70;93437.00;;;;10324720;28;46685;-67
2022/04/05 12:57:47;;;;;;;2.58;0.68;;;18.10;29.50;20.70;93439.00;;;;10302406;28;45403;-67
2022/04/05 13:02:50;;;;;;;0.90;0.40;;;18.10;29.60;20.70;93441.00;;;;10271769;28;47286;-68
2022/04/05 13:07:54;;;;;;;0.20;0.20;;;18.10;29.60;20.70;93440.00;;;;10287444;28;47127;-67
2022/04/05 13:12:55;;;;;;;0.50;0.30;;;18.10;29.60;20.70;93442.00;;;;10255831;28;47139;-67
2022/04/05 13:18:06;;;;;;;0.60;0.32;;;18.20;29.60;20.80;93428.00;;;;10272757;28;45543;-67
2022/04/05 13:23:08;;;;;;;0.30;0.20;;;18.20;29.60;20.80;93424.00;;;;10271750;28;45398;-68
2022/04/05 13:28:09;;;;;;;1.02;0.45;;;18.20;29.60;20.80;93430.00;;;;10282656;28;45393;-68
2022/04/05 13:33:13;;;;;;;0.73;0.30;;;18.20;29.60;20.90;93436.00;;;;10312081;28;46304;-67
2022/04/05 13:38:13;;;;;;;0.45;0.40;;;18.20;29.80;20.90;93434.00;;;;10311721;28;46539;-68
2022/04/05 13:43:14;;;;;;;1.38;0.30;;;18.30;30.20;20.90;93420.00;;;;10312182;28;45648;-64
2022/04/05 13:48:15;;;;;;;1.65;0.50;;;18.30;30.00;20.90;93428.00;;;;10312373;28;45210;-66
2022/04/05 13:53:18;;;;;;;2.15;0.40;;;18.30;30.20;20.90;93429.00;;;;10311382;28;47139;-64
2022/04/05 13:58:19;;;;;;;0.20;0.20;;;18.40;30.50;21.00;93422.00;;;;10311200;28;47982;-64
2022/04/05 14:03:20;;;;;;;2.38;0.40;;;18.40;30.50;20.90;93413.00;;;;10310717;28;46999;-64
2022/04/05 14:08:22;;;;;;;1.13;0.35;;;18.30;30.60;20.90;93419.00;;;;10310671;28;46724;-64
2022/04/05 14:13:23;;;;;;;0.88;0.35;;;18.30;30.50;20.90;93418.00;;;;10327137;28;46001;-67
2022/04/05 14:18:23;;;;;;;0.32;0.30;;;18.30;30.80;20.90;93410.00;;;;10312506;28;45389;-64
2022/04/05 14:23:25;;;;;;;0.47;0.40;;;18.40;30.40;21.00;93413.00;;;;10335614;28;48326;-65
2022/04/05 14:28:26;;;;;;;0.70;0.35;;;18.40;30.50;20.90;93419.00;;;;10330285;28;47573;-65
2022/04/05 14:33:27;;;;;;;0.52;0.40;;;18.30;30.50;20.90;93403.00;;;;10357631;28;45498;-64
2022/04/05 14:38:28;;;;;;;0.47;0.25;;;18.30;30.60;20.90;93396.00;;;;10374641;28;46570;-65
2022/04/05 14:43:29;;;;;;;0.95;0.38;;;18.30;30.40;20.90;93393.00;;;;10359538;28;45333;-68
2022/04/05 14:48:31;;;;;;;0.73;0.30;;;18.30;30.90;20.90;93374.00;;;;10358598;28;45371;-68
2022/04/05 14:53:32;;;;;;;0.40;0.30;;;18.30;30.70;20.80;93387.00;;;;10374170;28;45468;-67
2022/04/05 14:58:33;;;;;;;0.93;0.30;;;18.30;30.60;20.90;93386.00;;;;10374152;28;45422;-68
2022/04/05 15:03:34;;;;;;;0.70;0.30;;;18.30;30.50;20.90;93377.00;;;;10373822;28;45277;-69
2022/04/05 15:08:35;;;;;;;0.38;0.20;;;18.30;30.50;20.90;93368.00;;;;10358425;28;45425;-69
2022/04/05 15:13:35;;;;;;;0.30;0.20;;;18.30;30.40;20.90;93368.00;;;;10369760;28;45490;-65
2022/04/05 15:18:37;;;;;;;1.90;0.22;;;18.30;30.50;20.90;93379.00;;;;10332490;28;46377;-65
2022/04/05 15:23:37;;;;;;;0.38;0.28;;;18.30;30.80;20.90;93372.00;;;;10270358;28;47300;-64
2022/04/05 15:28:38;;;;;;;0.85;0.30;;;18.30;31.60;20.90;93363.00;;;;10274984;28;45415;-66
2022/04/05 15:33:40;;;;;;;0.30;0.30;;;18.30;31.10;21.00;93375.00;;;;10275512;28;47350;-65
2022/04/05 15:38:41;;;;;;;1.25;0.30;;;18.30;30.90;21.00;93364.00;;;;10275061;28;47120;-65
2022/04/05 15:43:43;;;;;;;0.30;0.30;;;18.30;30.80;20.90;93366.00;;;;10280216;28;46209;-65
2022/04/05 15:48:50;;;;;;;1.00;0.30;;;18.30;31.10;21.00;93367.00;;;;10275693;28;45230;-67
2022/04/05 15:53:51;;;;;;;1.65;0.30;;;18.40;31.00;20.90;93375.00;;;;10332409;28;45250;-72
2022/04/05 15:58:52;;;;;;;1.20;0.30;;;18.30;31.30;21.00;93370.00;;;;10331768;28;46450;-72
2022/04/05 16:03:52;;;;;;;0.80;0.43;;;18.30;31.50;21.00;93367.00;;;;10312803;28;47135;-69
2022/04/05 16:08:55;;;;;;;1.58;0.30;;;18.30;31.20;21.00;93359.00;;;;10331611;28;45329;-69
2022/04/05 16:13:56;;;;;;;0.65;0.30;;;18.40;30.90;21.00;93372.00;;;;10316420;28;45424;-69
2022/04/05 16:18:57;;;;;;;0.40;0.25;;;18.40;31.30;21.00;93358.00;;;;10314703;28;47362;-69
2022/04/05 16:23:57;;;;;;;0.20;0.20;;;18.40;30.60;20.90;93365.00;;;;10330878;28;45488;-69
2022/04/05 16:28:58;;;;;;;0.60;0.30;;;18.40;30.70;20.90;93348.00;;;;10313705;28;46180;-66
2022/04/05 16:33:58;;;;;;;0.52;0.32;;;18.40;30.70;20.90;93360.00;;;;10314979;28;45248;-67
2022/04/05 16:38:59;;;;;;;0.57;0.30;;;18.30;30.80;20.90;93364.00;;;;10314947;28;45271;-67
2022/04/05 16:44:00;;;;;;;1.20;0.40;;;18.30;30.80;20.90;93364.00;;;;10314608;28;45256;-67
2022/04/05 16:49:02;;;;;;;0.50;0.40;;;18.30;30.90;20.90;93355.00;;;;10312911;28;47460;-66
2022/04/05 16:54:03;;;;;;;1.58;0.47;;;18.30;30.80;20.90;93363.00;;;;10312520;28;46985;-66
2022/04/05 16:59:04;;;;;;;0.80;0.30;;;18.20;30.80;20.80;93364.00;;;;10329168;28;46340;-67
2022/04/05 17:04:07;;;;;;;5.32;0.40;;;18.30;30.90;20.80;93367.00;;;;10312713;28;47341;-67
2022/04/05 17:09:09;;;;;;;0.50;0.40;;;18.30;31.00;20.80;93373.00;;;;10306338;28;45583;-66
2022/04/05 17:14:10;;;;;;;0.70;0.50;;;18.20;31.10;20.80;93355.00;;;;10312386;28;45450;-67
2022/04/05 17:19:12;;;;;;;0.75;0.50;;;18.20;31.20;20.80;93368.00;;;;10295585;28;46982;-67
2022/04/05 17:24:13;;;;;;;0.95;0.60;;;18.20;31.40;20.70;93366.00;;;;10313445;28;45175;-66
2022/04/05 17:29:14;;;;;;;0.80;0.50;;;18.10;31.50;20.70;93371.00;;;;10294859;28;47275;-67
2022/04/05 17:34:15;;;;;;;0.75;0.45;;;18.10;31.50;20.70;93342.00;;;;10313078;28;46271;-67
2022/04/05 17:39:15;;;;;;;1.55;0.50;;;18.10;31.60;20.70;93355.00;;;;10312919;28;45435;-66
2022/04/05 17:44:17;;;;;;;1.15;0.50;;;18.10;31.60;20.70;93358.00;;;;10284747;28;45356;-67
2022/04/05 17:49:19;;;;;;;0.47;0.38;;;18.10;31.60;20.70;93359.00;;;;10254781;28;45427;-66
2022/04/05 17:54:20;;;;;;;0.60;0.43;;;18.10;31.70;20.70;93368.00;;;;10271266;28;45404;-66
2022/04/05 17:59:21;;;;;;;0.63;0.47;;;18.10;31.70;20.70;93357.00;;;;10272164;28;45545;-67
2022/04/05 18:04:21;;;;;;;1.20;0.63;;;18.10;31.80;20.70;93367.00;;;;10271476;28;45404;-66
2022/04/05 18:09:22;;;;;;;1.45;0.60;;;18.10;31.80;20.70;93347.00;;;;10277865;28;45363;-67
2022/04/05 18:14:23;;;;;;;0.70;0.40;;;18.10;31.70;20.70;93365.00;;;;10277948;28;45401;-66
2022/04/05 18:19:24;;;;;;;1.33;0.60;;;18.10;31.80;20.70;93351.00;;;;10276979;28;47309;-67
2022/04/05 18:24:29;;;;;;;1.00;0.70;;;18.10;31.70;20.70;93378.00;;;;10278454;28;45121;-66
2022/04/05 18:29:29;;;;;;;1.00;0.57;;;18.10;31.80;20.70;93370.00;;;;10260941;28;47739;-67
2022/04/05 18:34:30;;;;;;;0.88;0.63;;;18.10;31.80;20.70;93376.00;;;;10277035;28;46545;-67
2022/04/05 18:39:31;;;;;;;1.60;0.70;;;18.10;32.00;20.70;93379.00;;;;10260488;28;47367;-66
2022/04/05 18:44:32;;;;;;;2.35;0.70;;;18.10;31.80;20.70;93370.00;;;;10276653;28;45209;-66
2022/04/05 18:49:33;;;;;;;0.57;0.50;;;18.10;31.90;20.80;93381.00;;;;10323822;22;45296;-67
2022/04/05 18:54:34;;;;;;;0.65;0.50;;;18.20;32.00;20.80;93395.00;;;;10382395;28;46117;-65
2022/04/05 18:59:35;;;;;;;1.00;0.63;;;18.20;31.90;20.80;93413.00;;;;10399511;28;45365;-65
2022/04/05 19:04:35;;;;;;;0.88;0.60;;;18.20;31.80;20.80;93399.00;;;;10365421;28;46915;-65
2022/04/05 19:09:38;;;;;;;0.60;0.50;;;18.30;31.70;20.80;93400.00;;;;10364464;28;48401;-65
2022/04/05 19:14:39;;;;;;;1.38;0.40;;;18.20;31.70;20.80;93400.00;;;;10365196;28;46916;-65
2022/04/05 19:19:39;;;;;;;0.57;0.50;;;18.20;32.40;20.80;93415.00;;;;10380395;28;46060;-64
2022/04/05 19:24:40;;;;;;;0.50;0.40;;;18.20;31.70;20.80;93398.00;;;;10399193;28;45444;-65
2022/04/05 19:29:40;;;;;;;0.43;0.40;;;18.20;31.80;20.80;93417.00;;;;10380733;28;45365;-65
2022/04/05 19:34:44;;;;;;;0.47;0.47;;;18.20;31.80;20.80;93429.00;;;;10364157;28;47479;-65
2022/04/05 19:39:44;;;;;;;0.85;0.40;;;18.20;31.80;20.80;93420.00;;;;10371361;28;47186;-65
2022/04/05 19:44:46;;;;;;;0.57;0.40;;;18.10;31.80;20.80;93426.00;;;;10421668;28;47211;-65
2022/04/05 19:49:47;;;;;;;0.90;0.40;;;18.20;31.80;20.80;93429.00;;;;10410129;28;45575;-66
2022/04/05 19:54:47;;;;;;;1.25;0.50;;;18.20;31.90;20.80;93431.00;;;;10439870;28;45176;-65
2022/04/05 19:59:48;;;;;;;0.98;0.47;;;18.20;31.90;20.80;93419.00;;;;10420869;28;46874;-65
2022/04/05 20:04:49;;;;;;;0.85;0.40;;;18.20;31.90;20.80;93424.00;;;;10421438;28;45349;-65
2022/04/05 20:09:50;;;;;;;1.75;0.40;;;18.20;31.90;20.80;93423.00;;;;10437886;28;45611;-65
2022/04/05 20:14:50;;;;;;;0.93;0.50;;;18.20;31.90;20.80;93435.00;;;;10415768;28;48306;-65
2022/04/05 20:19:51;;;;;;;0.30;0.28;;;18.10;31.90;20.80;93423.00;;;;10418739;28;45623;-65
2022/04/05 20:24:51;;;;;;;0.70;0.40;;;18.10;31.90;20.70;93415.00;;;;10420853;28;47212;-65
2022/04/05 20:29:52;;;;;;;0.82;0.43;;;18.10;32.00;20.70;93399.00;;;;10419214;28;45666;-65
2022/04/05 20:34:53;;;;;;;0.75;0.40;;;18.00;32.00;20.60;93384.00;;;;10420651;28;45122;-64
2022/04/05 20:39:57;;;;;;;0.45;0.40;;;18.00;32.10;20.60;93388.00;;;;10419639;28;47264;-65
2022/04/05 20:44:59;;;;;;;0.80;0.40;;;17.90;32.10;20.60;93381.00;;;;10437254;28;45259;-64
2022/04/05 20:50:00;;;;;;;0.50;0.38;;;17.90;32.10;20.50;93370.00;;;;10418540;28;47325;-65
2022/04/05 20:55:05;;;;;;;0.88;0.50;;;17.90;32.10;20.50;93380.00;;;;10402806;28;47321;-65
2022/04/05 21:00:09;;;;;;;1.30;0.50;;;17.80;32.20;20.50;93372.00;;;;10419266;28;47005;-65
2022/04/05 21:05:10;;;;;;;0.93;0.52;;;17.80;32.20;20.40;93361.00;;;;10419209;28;47023;-65
2022/04/05 21:10:11;;;;;;;1.23;0.70;;;17.80;32.30;20.40;93377.00;;;;10436835;28;46442;-65
2022/04/05 21:15:11;;;;;;;0.90;0.60;;;17.80;32.40;20.40;93369.00;;;;10418827;28;47282;-64
2022/04/05 21:20:12;;;;;;;2.22;0.80;;;17.70;32.40;20.40;93360.00;;;;10436440;28;45139;-65
2022/04/05 21:25:13;;;;;;;1.15;0.60;;;17.70;32.50;20.40;93348.00;;;;10436598;28;45394;-65
2022/04/05 21:30:14;;;;;;;1.38;0.60;;;17.70;32.50;20.40;93347.00;;;;10417947;28;46974;-65
2022/04/05 21:35:14;;;;;;;1.70;0.60;;;17.70;32.60;20.30;93361.00;;;;10436338;28;45460;-65
2022/04/05 21:40:16;;;;;;;1.17;0.70;;;17.60;32.60;20.30;93357.00;;;;10417704;28;45381;-65
2022/04/05 21:45:16;;;;;;;1.20;0.70;;;17.60;32.60;20.30;93367.00;;;;10418601;28;45615;-64
2022/04/05 21:50:17;;;;;;;1.52;0.70;;;17.60;32.60;20.20;93355.00;;;;10417359;28;46250;-65
2022/04/05 21:55:18;;;;;;;0.77;0.32;;;17.60;32.70;20.30;93340.00;;;;10401291;28;47240;-65
2022/04/05 22:00:33;;;;;;;0.77;0.50;;;17.60;32.80;20.30;93338.00;;;;10417391;28;45294;-65
2022/04/05 22:05:34;;;;;;;1.30;0.70;;;17.60;32.80;20.20;93346.00;;;;10400869;28;47375;-65
2022/04/05 22:10:35;;;;;;;1.17;0.50;;;17.50;32.80;20.20;93339.00;;;;10417145;28;47286;-65